Time;durP1;ratioP1;P1;durP2;ratioP2;P2;SDS_P1;SDS_P2;PMS_P1;PMS_P2;Temp;Humidity;BMP_temperature;BMP_pressure;BME280_temperature;BME280_humidity;BME280_pressure;Samples;Min_cycle;Max_cycle;Signal;HPM_P1;HPM_P2
2023/01/01 00:01:41;;;;;;;;;;;;;;;14.75;43.12;100073.78;4468932;32;32230;-93
2023/01/01 00:04:12;;;;;;;;;;;;;;;14.32;44.27;100073.28;4470100;32;33898;-95
2023/01/01 00:06:40;;;;;;;;;;;;;;;14.68;43.60;100058.03;4469195;32;34393;-95
2023/01/01 00:11:54;;;;;;;;;;;;;;;14.55;43.80;100067.47;4468734;32;34332;-94
2023/01/01 00:14:22;;;;;;;;;;;;;;;14.84;43.14;100070.38;4469204;32;34178;-94
2023/01/01 00:16:49;;;;;;;;;;;;;;;14.30;44.64;100071.50;4464352;32;34341;-94
2023/01/01 00:19:16;;;;;;;;;;;;;;;14.53;44.29;100083.09;4484190;32;34294;-92
2023/01/01 00:21:45;;;;;;;;;;;;;;;14.83;43.42;100074.72;4484292;32;33570;-83
2023/01/01 00:24:12;;;;;;;;;;;;;;;14.81;43.46;100075.56;4484020;32;33647;-91
2023/01/01 00:26:40;;;;;;;;;;;;;;;14.92;42.86;100073.06;4475383;32;35146;-94
2023/01/01 00:29:07;;;;;;;;;;;;;;;14.77;43.22;100068.56;4468721;32;34669;-94
2023/01/01 00:31:34;;;;;;;;;;;;;;;14.73;43.21;100066.78;4468192;32;34409;-94
2023/01/01 00:34:01;;;;;;;;;;;;;;;14.65;43.48;100058.88;4468250;32;34945;-94
2023/01/01 00:36:29;;;;;;;;;;;;;;;14.68;43.50;100060.63;4468422;32;34563;-93
2023/01/01 00:38:56;;;;;;;;;;;;;;;14.59;43.57;100054.47;4476300;32;34221;-93
2023/01/01 00:41:23;;;;;;;;;;;;;;;14.40;44.25;100062.94;4468695;32;34395;-95
2023/01/01 00:43:51;;;;;;;;;;;;;;;14.72;43.55;100059.81;4468738;32;34055;-92
2023/01/01 00:46:18;;;;;;;;;;;;;;;14.26;44.41;100061.88;4468009;32;34388;-93
2023/01/01 00:48:45;;;;;;;;;;;;;;;14.47;44.22;100066.47;4456969;32;35221;-94
2023/01/01 00:51:13;;;;;;;;;;;;;;;14.41;44.22;100064.66;4484966;32;34519;-84
2023/01/01 00:53:40;;;;;;;;;;;;;;;14.42;44.16;100075.97;4485275;32;33914;-95
2023/01/01 00:56:08;;;;;;;;;;;;;;;14.43;44.58;100073.38;4485139;32;34420;-96
2023/01/01 00:58:35;;;;;;;;;;;;;;;14.81;43.82;100075.56;4483180;32;34540;-95
2023/01/01 01:01:02;;;;;;;;;;;;;;;14.83;43.78;100068.63;4469697;32;33017;-94
2023/01/01 01:03:30;;;;;;;;;;;;;;;14.74;43.80;100066.81;4456001;32;33993;-94
2023/01/01 01:06:03;;;;;;;;;;;;;;;14.31;44.63;100066.28;4472132;32;34188;-94
2023/01/01 01:08:32;;;;;;;;;;;;;;;14.40;44.90;100062.94;4469987;32;35095;-94
2023/01/01 01:11:06;;;;;;;;;;;;;;;14.25;44.96;100070.56;4477643;32;34173;-94
2023/01/01 01:13:33;;;;;;;;;;;;;;;14.55;44.59;100065.75;4466724;32;34864;-94
2023/01/01 01:16:01;;;;;;;;;;;;;;;14.69;44.76;100065.88;4468031;32;35060;-92
2023/01/01 01:18:28;;;;;;;;;;;;;;;14.74;44.65;100068.56;4458124;32;34491;-92
2023/01/01 01:21:14;;;;;;;;;;;;;;;14.93;44.20;100059.16;4468581;32;34345;-95
2023/01/01 01:23:41;;;;;;;;;;;;;;;14.58;45.00;100062.25;4468444;32;34054;-94
2023/01/01 01:26:28;;;;;;;;;;;;;;;14.86;44.43;100058.22;4467854;32;33489;-92
2023/01/01 01:28:55;;;;;;;;;;;;;;;14.90;43.97;100062.59;4456660;32;34816;-83
2023/01/01 01:31:23;;;;;;;;;;;;;;;14.88;44.00;100068.66;4469819;32;34510;-86
2023/01/01 01:33:50;;;;;;;;;;;;;;;14.73;44.05;100066.78;4484189;32;34939;-93
2023/01/01 01:36:18;;;;;;;;;;;;;;;14.71;43.94;100069.38;4476764;32;34217;-93
2023/01/01 01:38:45;;;;;;;;;;;;;;;14.80;43.58;100076.41;4479658;32;34451;-94
2023/01/01 01:41:13;;;;;;;;;;;;;;;14.86;43.50;100073.88;4487302;31;34312;-94
2023/01/01 01:43:55;;;;;;;;;;;;;;;14.87;42.94;100065.19;4463430;32;34312;-89
2023/01/01 01:46:30;;;;;;;;;;;;;;;14.66;43.16;100067.56;4487856;32;35152;-95
2023/01/01 01:48:59;;;;;;;;;;;;;;;14.81;42.92;100075.56;4472610;32;35351;-89
2023/01/01 01:51:28;;;;;;;;;;;;;;;14.79;43.04;100072.94;4471775;32;33548;-95
2023/01/01 01:53:56;;;;;;;;;;;;;;;14.76;43.14;100065.06;4472189;32;33821;-83
2023/01/01 01:56:28;;;;;;;;;;;;;;;14.86;42.84;100062.56;4485062;32;34273;-91
2023/01/01 01:58:56;;;;;;;;;;;;;;;14.87;42.70;100061.69;4471195;32;34063;-96
2023/01/01 02:01:23;;;;;;;;;;;;;;;14.81;42.50;100058.19;4470623;32;33435;-81
2023/01/01 02:03:56;;;;;;;;;;;;;;;14.71;42.87;100068.50;4470680;32;34524;-81
2023/01/01 02:06:24;;;;;;;;;;;;;;;14.68;42.99;100069.34;4470780;32;34391;-86
2023/01/01 02:08:52;;;;;;;;;;;;;;;14.74;42.82;100068.56;4470566;32;34221;-81
2023/01/01 02:11:19;;;;;;;;;;;;;;;14.49;43.67;100072.59;4484773;32;32944;-85
2023/01/01 02:13:48;;;;;;;;;;;;;;;14.59;43.63;100072.75;4485862;32;34394;-83
2023/01/01 02:16:19;;;;;;;;;;;;;;;14.74;43.33;100065.94;4472727;32;34368;-92
2023/01/01 02:18:51;;;;;;;;;;;;;;;14.74;43.30;100063.34;4485188;32;34229;-84
2023/01/01 02:21:20;;;;;;;;;;;;;;;14.17;44.87;100060.03;4470917;32;33749;-82
2023/01/01 02:23:47;;;;;;;;;;;;;;;14.65;43.55;100066.69;4470395;32;33828;-85
2023/01/01 02:26:37;;;;;;;;;;;;;;;14.58;43.40;100073.59;4486195;32;33928;-95
2023/01/01 02:29:23;;;;;;;;;;;;;;;14.46;43.90;100083.84;4490346;32;35512;-95
2023/01/01 02:31:59;;;;;;;;;;;;;;;14.52;43.91;100083.09;4478251;32;33609;-94
2023/01/01 02:34:28;;;;;;;;;;;;;;;14.50;44.03;100083.06;4463307;32;34392;-92
2023/01/01 02:36:55;;;;;;;;;;;;;;;14.34;43.99;100083.72;4462129;32;34179;-94
2023/01/01 02:39:24;;;;;;;;;;;;;;;14.47;43.76;100089.94;4461883;32;34489;-95
2023/01/01 02:41:51;;;;;;;;;;;;;;;14.27;43.83;100084.47;4457196;32;33674;-94
2023/01/01 02:44:19;;;;;;;;;;;;;;;14.39;43.75;100084.63;4457778;32;33971;-93
2023/01/01 02:46:46;;;;;;;;;;;;;;;14.39;43.72;100091.59;4456973;32;34893;-91
2023/01/01 02:49:13;;;;;;;;;;;;;;;14.53;43.42;100090.94;4478271;32;34539;-94
2023/01/01 02:51:44;;;;;;;;;;;;;;;14.62;43.25;100087.53;4491744;32;34411;-95
2023/01/01 02:54:17;;;;;;;;;;;;;;;14.59;43.14;100077.97;4472437;32;34311;-96
2023/01/01 02:56:57;;;;;;;;;;;;;;;14.68;43.05;100073.69;4484386;32;35304;-95
2023/01/01 03:02:11;;;;;;;;;;;;;;;14.66;42.64;100065.84;4469559;32;33527;-95
2023/01/01 03:04:44;;;;;;;;;;;;;;;14.54;42.69;100060.47;4470566;32;34266;-94
2023/01/01 03:07:31;;;;;;;;;;;;;;;13.99;44.38;100065.88;4469213;32;35396;-95
2023/01/01 03:10:00;;;;;;;;;;;;;;;14.26;43.86;100070.56;4475657;32;34627;-95
2023/01/01 03:12:42;;;;;;;;;;;;;;;14.44;43.48;100064.72;4484846;32;33793;-93
2023/01/01 03:15:30;;;;;;;;;;;;;;;14.36;43.32;100064.63;4471431;32;33581;-87
2023/01/01 03:18:26;;;;;;;;;;;;;;;14.43;43.33;100067.28;4457595;32;33894;-94
2023/01/01 03:20:54;;;;;;;;;;;;;;;14.44;43.23;100067.31;4460232;32;34109;-90
2023/01/01 03:23:23;;;;;;;;;;;;;;;14.52;42.77;100067.44;4473598;32;33457;-95
2023/01/01 03:25:53;;;;;;;;;;;;;;;14.44;42.87;100058.63;4459639;32;34313;-94
2023/01/01 03:28:21;;;;;;;;;;;;;;;14.20;43.71;100059.19;4459355;32;33932;-94
2023/01/01 03:30:48;;;;;;;;;;;;;;;14.41;43.48;100062.06;4458507;32;34540;-93
2023/01/01 03:33:17;;;;;;;;;;;;;;;14.43;43.40;100067.28;4471726;32;34423;-93
2023/01/01 03:35:46;;;;;;;;;;;;;;;14.49;43.31;100068.25;4460144;32;34023;-94
2023/01/01 03:38:15;;;;;;;;;;;;;;;14.42;43.50;100060.31;4461539;32;34373;-94
2023/01/01 03:40:42;;;;;;;;;;;;;;;14.45;43.46;100060.38;4457584;32;34539;-95
2023/01/01 03:43:18;;;;;;;;;;;;;;;14.26;44.00;100059.28;4457594;32;33247;-94
2023/01/01 03:45:46;;;;;;;;;;;;;;;14.52;43.64;100062.22;4457921;32;34206;-95
2023/01/01 03:48:14;;;;;;;;;;;;;;;14.58;43.53;100064.88;4456623;32;34840;-91
2023/01/01 03:51:00;;;;;;;;;;;;;;;14.37;43.98;100073.31;4469009;32;34873;-93
2023/01/01 03:53:32;;;;;;;;;;;;;;;14.47;44.01;100061.25;4471595;32;33783;-84
2023/01/01 03:56:13;;;;;;;;;;;;;;;14.40;44.09;100065.53;4471639;32;34291;-94
2023/01/01 03:58:48;;;;;;;;;;;;;;;14.48;44.02;100053.44;4472446;32;35358;-95
2023/01/01 04:01:39;;;;;;;;;;;;;;;14.42;44.05;100055.97;4473282;32;35140;-95
2023/01/01 04:04:07;;;;;;;;;;;;;;;14.41;44.19;100059.44;4476061;32;33355;-90
2023/01/01 04:06:34;;;;;;;;;;;;;;;14.44;44.04;100051.66;4458909;32;34133;-94
2023/01/01 04:09:02;;;;;;;;;;;;;;;14.52;43.99;100055.25;4470198;32;34290;-95
2023/01/01 04:14:27;;;;;;;;;;;;;;;14.34;44.35;100053.28;4465623;32;33373;-89
2023/01/01 04:16:55;;;;;;;;;;;;;;;14.44;44.23;100049.06;4492028;32;34264;-93
2023/01/01 04:19:22;;;;;;;;;;;;;;;14.46;44.20;100047.31;4489285;32;34095;-84
2023/01/01 04:21:49;;;;;;;;;;;;;;;14.56;43.98;100053.56;4491892;32;33815;-83
2023/01/01 04:24:17;;;;;;;;;;;;;;;14.47;43.93;100050.81;4471375;32;34301;-91
2023/01/01 04:26:44;;;;;;;;;;;;;;;14.16;44.86;100050.44;4479974;32;34242;-82
2023/01/01 04:29:11;;;;;;;;;;;;;;;14.18;44.85;100050.47;4474192;32;35125;-82
2023/01/01 04:31:39;;;;;;;;;;;;;;;14.24;44.66;100051.41;4474168;32;35215;-93
2023/01/01 04:34:06;;;;;;;;;;;;;;;14.29;44.76;100054.97;4476486;32;32947;-83
2023/01/01 04:36:33;;;;;;;;;;;;;;;14.14;45.34;100048.69;4487359;32;34204;-82
2023/01/01 04:39:01;;;;;;;;;;;;;;;13.94;46.23;100057.13;4484926;32;35368;-92
2023/01/01 04:41:28;;;;;;;;;;;;;;;13.96;46.08;100046.72;4488392;32;34431;-83
2023/01/01 04:43:55;;;;;;;;;;;;;;;13.90;46.29;100041.41;4480858;32;33472;-82
2023/01/01 04:46:23;;;;;;;;;;;;;;;14.18;45.64;100038.31;4480792;32;34165;-82
2023/01/01 04:48:50;;;;;;;;;;;;;;;13.88;45.93;100046.63;4469934;32;34373;-93
2023/01/01 04:51:18;;;;;;;;;;;;;;;13.77;46.49;100048.19;4485940;32;34439;-83
2023/01/01 04:53:45;;;;;;;;;;;;;;;14.09;45.83;100040.78;4469046;32;34387;-86
2023/01/01 04:56:14;;;;;;;;;;;;;;;14.16;45.66;100044.34;4470766;32;34378;-86
2023/01/01 04:58:42;;;;;;;;;;;;;;;13.69;46.91;100045.50;4469436;32;34348;-94
2023/01/01 05:01:17;;;;;;;;;;;;;;;13.90;46.20;100051.84;4455385;32;34037;-95
2023/01/01 05:03:44;;;;;;;;;;;;;;;14.08;45.32;100047.75;4471734;32;33114;-83
2023/01/01 05:06:12;;;;;;;;;;;;;;;14.26;44.51;100047.09;4482781;32;35003;-95
2023/01/01 05:08:40;;;;;;;;;;;;;;;13.76;45.40;100055.16;4472508;32;34206;-93
2023/01/01 05:11:08;;;;;;;;;;;;;;;13.96;44.65;100049.31;4454653;32;35242;-92
2023/01/01 05:13:38;;;;;;;;;;;;;;;13.90;44.28;100055.31;4468651;32;33221;-81
2023/01/01 05:16:05;;;;;;;;;;;;;;;12.63;46.35;100058.47;4469800;32;35181;-82
2023/01/01 05:18:33;;;;;;;;;;;;;;;13.44;44.69;100049.44;4484182;32;33964;-87
2023/01/01 05:21:02;;;;;;;;;;;;;;;13.56;44.31;100044.44;4470574;32;34525;-82
2023/01/01 05:23:29;;;;;;;;;;;;;;;13.79;43.50;100050.00;4470902;32;34435;-83
2023/01/01 05:25:57;;;;;;;;;;;;;;;13.77;43.54;100045.59;4441117;32;34085;-95
2023/01/01 05:28:25;;;;;;;;;;;;;;;13.27;44.32;100045.72;4463515;32;35115;-95
2023/01/01 05:30:52;;;;;;;;;;;;;;;13.34;44.25;100047.56;4468092;32;33887;-92
2023/01/01 05:33:19;;;;;;;;;;;;;;;13.25;44.22;100053.50;4456276;32;33818;-91
2023/01/01 05:35:51;;;;;;;;;;;;;;;13.57;43.69;100059.22;4474879;32;34894;-83
2023/01/01 05:38:19;;;;;;;;;;;;;;;13.62;43.28;100061.88;4483014;32;35152;-95
2023/01/01 05:40:46;;;;;;;;;;;;;;;13.51;43.21;100066.94;4476686;32;35214;-82
2023/01/01 05:43:15;;;;;;;;;;;;;;;13.50;43.15;100067.78;4471763;32;33675;-81
2023/01/01 05:45:43;;;;;;;;;;;;;;;13.09;44.29;100057.53;4466157;32;34696;-83
2023/01/01 05:48:10;;;;;;;;;;;;;;;13.24;44.09;100058.69;4465906;32;34647;-94
2023/01/01 05:50:37;;;;;;;;;;;;;;;13.51;43.21;100061.72;4465632;32;35079;-83
2023/01/01 05:53:04;;;;;;;;;;;;;;;13.27;43.43;100064.81;4465793;32;34749;-82
2023/01/01 05:55:32;;;;;;;;;;;;;;;13.29;43.55;100070.91;4477200;32;34701;-88
2023/01/01 05:57:59;;;;;;;;;;;;;;;13.46;43.17;100084.22;4475011;32;34535;-87
2023/01/01 06:00:27;;;;;;;;;;;;;;;13.25;43.29;100082.13;4470706;32;35104;-95
2023/01/01 06:02:54;;;;;;;;;;;;;;;13.29;43.38;100096.09;4471155;32;34577;-93
2023/01/01 06:05:21;;;;;;;;;;;;;;;13.11;43.61;100094.91;4485869;32;33683;-88
2023/01/01 06:07:49;;;;;;;;;;;;;;;13.02;44.00;100110.34;4472550;32;33908;-92
2023/01/01 06:10:16;;;;;;;;;;;;;;;13.08;43.98;100114.81;4466637;32;34810;-94
2023/01/01 06:12:43;;;;;;;;;;;;;;;13.29;43.60;100116.91;4466897;32;32779;-83
2023/01/01 06:15:11;;;;;;;;;;;;;;;13.36;43.33;100117.03;4468532;32;33968;-93
2023/01/01 06:17:38;;;;;;;;;;;;;;;13.36;43.37;100119.66;4468589;32;35221;-93
2023/01/01 06:20:05;;;;;;;;;;;;;;;13.43;43.27;100128.44;4469534;32;34868;-92
2023/01/01 06:22:35;;;;;;;;;;;;;;;13.24;43.59;100129.00;4468863;32;33546;-90
2023/01/01 06:25:02;;;;;;;;;;;;;;;13.22;43.85;100136.75;4469556;32;35093;-83
2023/01/01 06:27:29;;;;;;;;;;;;;;;13.23;44.05;100142.84;4473277;32;33843;-90
2023/01/01 06:29:57;;;;;;;;;;;;;;;12.88;44.82;100143.06;4472949;32;34202;-91
2023/01/01 06:32:25;;;;;;;;;;;;;;;13.10;44.49;100141.72;4473532;32;33417;-82
2023/01/01 06:34:52;;;;;;;;;;;;;;;12.99;45.03;100143.25;4473823;32;34071;-94
2023/01/01 06:37:19;;;;;;;;;;;;;;;13.01;45.28;100145.03;4473795;32;34118;-88
2023/01/01 06:39:46;;;;;;;;;;;;;;;13.19;45.03;100154.06;4474651;32;35215;-82
2023/01/01 06:42:14;;;;;;;;;;;;;;;13.34;44.74;100144.81;4473574;32;33792;-95
2023/01/01 06:44:41;;;;;;;;;;;;;;;13.41;44.43;100143.19;4479143;32;34596;-92
2023/01/01 06:47:08;;;;;;;;;;;;;;;13.20;44.48;100164.50;4477366;32;35199;-92
2023/01/01 06:49:36;;;;;;;;;;;;;;;13.28;44.51;100159.44;4470917;32;36310;-94
2023/01/01 06:52:03;;;;;;;;;;;;;;;13.18;44.94;100163.56;4470232;32;33589;-94
2023/01/01 06:54:30;;;;;;;;;;;;;;;13.39;44.70;100165.72;4470295;32;34164;-94
2023/01/01 06:56:57;;;;;;;;;;;;;;;13.52;44.76;100164.19;4470544;32;33563;-95
2023/01/01 06:59:24;;;;;;;;;;;;;;;13.61;44.38;100161.75;4467807;32;35153;-80
2023/01/01 07:01:52;;;;;;;;;;;;;;;13.67;44.19;100161.84;4484667;32;32883;-95
2023/01/01 07:04:20;;;;;;;;;;;;;;;13.67;44.27;100156.63;4473821;32;35059;-93
2023/01/01 07:06:47;;;;;;;;;;;;;;;13.74;44.07;100157.59;4473058;32;34207;-81
2023/01/01 07:09:14;;;;;;;;;;;;;;;13.89;43.40;100155.22;4472954;32;34507;-80
2023/01/01 07:11:41;;;;;;;;;;;;;;;13.15;44.60;100156.59;4474336;32;34464;-95
2023/01/01 07:14:09;;;;;;;;;;;;;;;13.22;45.07;100156.69;4476863;32;35153;-95
2023/01/01 07:16:36;;;;;;;;;;;;;;;13.41;45.06;100151.00;4486961;32;33902;-89
2023/01/01 07:19:03;;;;;;;;;;;;;;;13.65;44.74;100157.47;4463009;32;34317;-95
2023/01/01 07:21:32;;;;;;;;;;;;;;;13.77;44.68;100158.53;4469869;32;33515;-92
2023/01/01 07:24:00;;;;;;;;;;;;;;;13.68;45.03;100158.41;4470796;32;34365;-94
2023/01/01 07:26:28;;;;;;;;;;;;;;;13.73;45.18;100138.50;4470216;32;33971;-82
2023/01/01 07:28:55;;;;;;;;;;;;;;;13.73;45.27;100142.84;4464604;32;34518;-81
2023/01/01 07:31:32;;;;;;;;;;;;;;;13.98;45.26;100141.44;4478205;32;33613;-82
2023/01/01 07:33:59;;;;;;;;;;;;;;;13.69;46.60;100147.12;4471577;32;34898;-82
2023/01/01 07:36:26;;;;;;;;;;;;;;;14.05;46.74;100139.00;4471573;32;34516;-86
2023/01/01 07:38:54;;;;;;;;;;;;;;;14.08;46.87;100144.22;4472476;32;34592;-83
2023/01/01 07:41:21;;;;;;;;;;;;;;;14.14;46.88;100145.19;4479191;32;33696;-82
2023/01/01 07:43:48;;;;;;;;;;;;;;;14.02;47.65;100144.16;4486339;32;34091;-83
2023/01/01 07:46:17;;;;;;;;;;;;;;;14.03;48.08;100151.09;4486349;32;34491;-82
2023/01/01 07:48:45;;;;;;;;;;;;;;;14.42;47.21;100149.03;4482291;32;34340;-82
2023/01/01 07:51:12;;;;;;;;;;;;;;;14.47;47.20;100150.84;4476954;32;34250;-82
2023/01/01 07:53:40;;;;;;;;;;;;;;;14.66;46.81;100148.47;4486613;32;35001;-94
2023/01/01 07:56:07;;;;;;;;;;;;;;;14.12;47.75;100163.41;4486180;32;34291;-83
2023/01/01 07:58:37;;;;;;;;;;;;;;;13.96;49.35;100170.13;4485062;32;34588;-96
2023/01/01 08:01:05;;;;;;;;;;;;;;;14.21;48.78;100171.38;4462676;32;34302;-84
2023/01/01 08:03:32;;;;;;;;;;;;;;;14.54;47.96;100167.47;4480248;32;34349;-83
2023/01/01 08:06:02;;;;;;;;;;;;;;;14.51;47.82;100180.50;4484953;32;33981;-83
2023/01/01 08:08:29;;;;;;;;;;;;;;;13.27;49.77;100191.56;4470392;32;33398;-96
2023/01/01 08:11:00;;;;;;;;;;;;;;;13.65;48.56;100180.94;4483997;32;33811;-82
2023/01/01 08:13:30;;;;;;;;;;;;;;;14.15;47.40;100180.81;4479838;32;34713;-81
2023/01/01 08:15:57;;;;;;;;;;;;;;;14.42;46.56;100182.94;4482906;32;34412;-83
2023/01/01 08:18:25;;;;;;;;;;;;;;;14.46;46.93;100192.56;4483788;32;34729;-82
2023/01/01 08:20:53;;;;;;;;;;;;;;;14.05;48.89;100208.47;4478766;32;33345;-83
2023/01/01 08:23:20;;;;;;;;;;;;;;;14.20;48.57;100208.72;4471235;32;34383;-81
2023/01/01 08:25:47;;;;;;;;;;;;;;;14.01;48.50;100210.16;4484138;32;34291;-82
2023/01/01 08:28:14;;;;;;;;;;;;;;;14.26;48.06;100206.22;4482617;32;34460;-82
2023/01/01 08:30:42;;;;;;;;;;;;;;;13.51;49.12;100220.63;4471434;32;34507;-81
2023/01/01 08:33:10;;;;;;;;;;;;;;;14.18;47.26;100213.03;4484005;32;34170;-82
2023/01/01 08:35:39;;;;;;;;;;;;;;;14.00;48.02;100207.53;4484023;32;34221;-86
2023/01/01 08:38:07;;;;;;;;;;;;;;;14.23;47.22;100203.53;4472244;32;34375;-81
2023/01/01 08:40:35;;;;;;;;;;;;;;;14.00;47.97;100208.41;4473854;32;33477;-95
2023/01/01 08:43:02;;;;;;;;;;;;;;;13.15;49.67;100219.09;4486836;32;33770;-95
2023/01/01 08:45:30;;;;;;;;;;;;;;;13.30;49.31;100220.25;4485996;32;33922;-82
2023/01/01 08:47:57;;;;;;;;;;;;;;;13.57;48.60;100218.16;4486229;32;34163;-83
2023/01/01 08:50:25;;;;;;;;;;;;;;;13.77;48.63;100209.78;4486834;32;33424;-82
2023/01/01 08:52:52;;;;;;;;;;;;;;;14.20;48.09;100194.78;4480625;32;34350;-94
2023/01/01 08:55:19;;;;;;;;;;;;;;;13.97;49.23;100197.94;4466323;32;34425;-82
2023/01/01 08:57:47;;;;;;;;;;;;;;;13.71;51.33;100201.84;4474960;32;34514;-82
2023/01/01 09:00:15;;;;;;;;;;;;;;;13.95;50.74;100198.78;4454758;32;33503;-95
2023/01/01 09:02:42;;;;;;;;;;;;;;;14.09;51.08;100192.94;4478042;32;35011;-95
2023/01/01 09:05:09;;;;;;;;;;;;;;;13.82;52.20;100202.91;4469342;32;34077;-88
2023/01/01 09:07:37;;;;;;;;;;;;;;;14.81;50.61;100201.75;4470050;32;35073;-92
2023/01/01 09:10:04;;;;;;;;;;;;;;;13.34;55.21;100214.25;4480597;32;33533;-94
2023/01/01 09:12:31;;;;;;;;;;;;;;;13.86;53.63;100220.34;4484311;32;33725;-95
2023/01/01 09:14:59;;;;;;;;;;;;;;;14.13;52.94;100212.12;4483647;32;35353;-93
2023/01/01 09:17:26;;;;;;;;;;;;;;;14.22;52.68;100219.19;4484067;32;34614;-82
2023/01/01 09:19:54;;;;;;;;;;;;;;;14.17;52.53;100221.72;4482622;32;33700;-94
2023/01/01 09:22:22;;;;;;;;;;;;;;;14.39;51.68;100211.59;4484514;32;34134;-82
2023/01/01 09:24:49;;;;;;;;;;;;;;;14.56;51.60;100213.63;4483907;32;34027;-82
2023/01/01 09:27:16;;;;;;;;;;;;;;;14.59;51.18;100216.28;4475636;32;35054;-83
2023/01/01 09:29:43;;;;;;;;;;;;;;;15.23;49.87;100215.28;4480971;32;33631;-93
2023/01/01 09:32:10;;;;;;;;;;;;;;;14.77;50.39;100213.03;4483449;32;34301;-82
2023/01/01 09:34:38;;;;;;;;;;;;;;;14.97;50.15;100215.00;4483246;32;34274;-88
2023/01/01 09:37:05;;;;;;;;;;;;;;;15.04;50.20;100216.81;4482869;32;34606;-82
2023/01/01 09:39:32;;;;;;;;;;;;;;;15.19;49.97;100213.47;4481664;32;34241;-87
2023/01/01 09:42:23;;;;;;;;;;;;;;;14.98;50.68;100215.00;4469741;32;34154;-86
2023/01/01 09:44:56;;;;;;;;;;;;;;;15.27;50.27;100201.41;4461754;32;34854;-82
2023/01/01 09:47:33;;;;;;;;;;;;;;;15.50;49.69;100205.12;4468084;32;34396;-94
2023/01/01 09:50:05;;;;;;;;;;;;;;;15.31;50.24;100208.41;4437891;32;34503;-82
2023/01/01 09:52:43;;;;;;;;;;;;;;;15.44;49.79;100202.44;4480999;32;33766;-92
2023/01/01 09:55:19;;;;;;;;;;;;;;;15.12;50.79;100202.13;4470087;32;35120;-88
2023/01/01 09:57:48;;;;;;;;;;;;;;;15.71;49.65;100208.81;4483797;32;34986;-91
2023/01/01 10:00:16;;;;;;;;;;;;;;;15.67;49.61;100197.44;4490721;32;33646;-82
2023/01/01 10:03:02;;;;;;;;;;;;;;;15.43;50.28;100210.25;4489160;32;34091;-94
2023/01/01 10:05:33;;;;;;;;;;;;;;;15.32;50.68;100205.78;4491204;32;34344;-86
2023/01/01 10:08:00;;;;;;;;;;;;;;;15.97;49.17;100206.41;4449052;32;35289;-84
2023/01/01 10:10:40;;;;;;;;;;;;;;;15.28;50.75;100206.63;4461445;32;34492;-94
2023/01/01 10:13:11;;;;;;;;;;;;;;;15.35;50.63;100204.97;4465032;32;34408;-92
2023/01/01 10:15:39;;;;;;;;;;;;;;;15.93;49.53;100207.25;4493395;32;34504;-94
2023/01/01 10:18:10;;;;;;;;;;;;;;;15.27;51.28;100206.63;4481559;32;35016;-96
2023/01/01 10:20:43;;;;;;;;;;;;;;;16.27;48.51;100195.28;4492298;32;33050;-91
2023/01/01 10:23:21;;;;;;;;;;;;;;;16.46;48.08;100199.75;4461683;32;34219;-96
2023/01/01 10:25:48;;;;;;;;;;;;;;;16.42;48.00;100190.13;4448900;32;34933;-82
2023/01/01 10:28:23;;;;;;;;;;;;;;;16.47;47.92;100187.53;4461177;32;33913;-95
2023/01/01 10:30:55;;;;;;;;;;;;;;;16.56;47.75;100187.59;4466269;32;34487;-87
2023/01/01 10:33:22;;;;;;;;;;;;;;;16.39;48.08;100186.63;4461176;32;34169;-83
2023/01/01 10:35:49;;;;;;;;;;;;;;;15.85;49.55;100188.88;4483000;32;34674;-88
2023/01/01 10:38:21;;;;;;;;;;;;;;;16.16;48.84;100183.88;4489924;32;34451;-83
2023/01/01 10:40:50;;;;;;;;;;;;;;;16.28;48.49;100183.94;4476315;32;34271;-93
2023/01/01 10:43:17;;;;;;;;;;;;;;;16.40;48.29;100168.31;4475630;32;33509;-93
2023/01/01 10:45:45;;;;;;;;;;;;;;;16.19;49.02;100171.69;4485458;32;34042;-94
2023/01/01 10:48:18;;;;;;;;;;;;;;;16.31;48.75;100170.88;4461579;32;34366;-85
2023/01/01 10:50:45;;;;;;;;;;;;;;;16.23;49.05;100168.22;4474594;32;33528;-94
2023/01/01 10:53:26;;;;;;;;;;;;;;;15.79;50.09;100175.75;4476042;32;34950;-91
2023/01/01 10:56:03;;;;;;;;;;;;;;;15.71;50.63;100167.84;4464150;32;35120;-91
2023/01/01 10:58:33;;;;;;;;;;;;;;;15.58;51.06;100169.47;4460134;32;34490;-92
2023/01/01 11:01:01;;;;;;;;;;;;;;;15.78;50.54;100163.53;4460183;32;33447;-88
2023/01/01 11:03:28;;;;;;;;;;;;;;;14.56;53.81;100166.66;4458558;32;34109;-91
2023/01/01 11:06:14;;;;;;;;;;;;;;;14.93;52.62;100166.22;4450986;32;34357;-86
2023/01/01 11:08:45;;;;;;;;;;;;;;;14.56;53.20;100163.16;4478697;32;34155;-89
2023/01/01 11:11:29;;;;;;;;;;;;;;;13.92;54.69;100157.03;4483959;32;34116;-87
2023/01/01 11:14:03;;;;;;;;;;;;;;;13.06;56.77;100148.59;4471840;32;33895;-88
2023/01/01 11:16:30;;;;;;;;;;;;;;;13.50;56.09;100132.03;4462731;32;34458;-85
2023/01/01 11:19:07;;;;;;;;;;;;;;;14.74;52.79;100121.63;4465983;32;35323;-94
2023/01/01 11:21:34;;;;;;;;;;;;;;;14.89;52.13;100114.78;4468240;32;33494;-89
2023/01/01 11:24:28;;;;;;;;;;;;;;;14.65;53.37;100112.81;4445894;32;34222;-95
2023/01/01 11:27:10;;;;;;;;;;;;;;;15.01;52.88;100118.44;4458740;32;34204;-95
2023/01/01 11:29:37;;;;;;;;;;;;;;;15.40;52.26;100111.81;4464374;32;34374;-91
2023/01/01 11:32:05;;;;;;;;;;;;;;;15.27;52.98;100125.66;4467174;32;34297;-93
2023/01/01 11:34:36;;;;;;;;;;;;;;;15.08;53.23;100127.19;4460849;32;33393;-81
2023/01/01 11:37:13;;;;;;;;;;;;;;;15.60;52.41;100122.41;4473610;32;34394;-92
2023/01/01 11:39:42;;;;;;;;;;;;;;;15.71;52.49;100125.16;4487750;32;34588;-82
2023/01/01 11:42:10;;;;;;;;;;;;;;;15.21;52.53;100133.41;4479089;32;33780;-92
2023/01/01 11:44:39;;;;;;;;;;;;;;;15.44;51.02;100133.62;4468326;32;34122;-94
2023/01/01 11:47:07;;;;;;;;;;;;;;;15.06;51.94;100132.37;4455846;32;34448;-89
2023/01/01 11:49:34;;;;;;;;;;;;;;;15.19;52.07;100135.13;4456080;32;34723;-84
2023/01/01 11:52:05;;;;;;;;;;;;;;;15.39;51.65;100120.50;4459302;32;33422;-94
2023/01/01 11:54:34;;;;;;;;;;;;;;;15.60;51.58;100116.31;4457309;32;34014;-91
2023/01/01 11:57:11;;;;;;;;;;;;;;;16.04;50.46;100119.25;4472433;32;34167;-92
2023/01/01 11:59:41;;;;;;;;;;;;;;;16.25;50.24;100113.25;4472186;32;34495;-80
2023/01/01 12:02:10;;;;;;;;;;;;;;;16.23;50.05;100109.78;4468688;32;33622;-96
2023/01/01 12:04:43;;;;;;;;;;;;;;;16.33;50.00;100105.44;4474837;32;34691;-90
2023/01/01 12:07:12;;;;;;;;;;;;;;;16.20;50.42;100099.28;4472024;32;35309;-93
2023/01/01 12:10:05;;;;;;;;;;;;;;;16.74;48.91;100095.16;4457041;32;35310;-93
2023/01/01 12:12:38;;;;;;;;;;;;;;;17.21;47.40;100099.62;4480549;32;33072;-92
2023/01/01 12:15:06;;;;;;;;;;;;;;;16.90;47.39;100098.72;4481256;32;34031;-92
2023/01/01 12:17:34;;;;;;;;;;;;;;;16.95;47.70;100102.19;4466563;32;34213;-80
2023/01/01 12:20:04;;;;;;;;;;;;;;;16.46;48.75;100102.91;4460447;32;34424;-91
2023/01/01 12:22:31;;;;;;;;;;;;;;;16.56;48.57;100097.72;4483385;32;34412;-80
2023/01/01 12:24:59;;;;;;;;;;;;;;;16.30;49.19;100101.09;4458541;32;34944;-95
2023/01/01 12:27:26;;;;;;;;;;;;;;;16.26;48.98;100094.09;4468869;32;34148;-93
2023/01/01 12:29:58;;;;;;;;;;;;;;;16.26;49.05;100094.09;4469844;32;35228;-95
2023/01/01 12:32:44;;;;;;;;;;;;;;;16.28;48.73;100087.13;4470029;32;33844;-93
2023/01/01 12:35:30;;;;;;;;;;;;;;;16.10;48.53;100081.78;4467727;32;34094;-93
2023/01/01 12:37:57;;;;;;;;;;;;;;;15.00;50.87;100082.72;4472515;32;34022;-81
2023/01/01 12:40:43;;;;;;;;;;;;;;;16.43;47.31;100086.31;4487826;32;34988;-91
2023/01/01 12:43:11;;;;;;;;;;;;;;;16.07;48.43;100085.28;4469574;32;33673;-84
2023/01/01 12:45:47;;;;;;;;;;;;;;;16.14;48.41;100079.22;4474383;32;34351;-95
2023/01/01 12:48:34;;;;;;;;;;;;;;;16.23;48.31;100087.09;4480167;32;35287;-83
2023/01/01 12:51:11;;;;;;;;;;;;;;;16.71;47.16;100082.91;4478744;32;35272;-92
2023/01/01 12:54:13;;;;;;;;;;;;;;;16.39;47.94;100090.66;4474929;32;33247;-93
2023/01/01 12:56:45;;;;;;;;;;;;;;;16.89;47.00;100082.09;4416147;32;33937;-88
2023/01/01 12:59:13;;;;;;;;;;;;;;;16.68;48.06;100084.66;4454123;32;34260;-92